Time;durP1;ratioP1;P1;durP2;ratioP2;P2;SDS_P1;SDS_P2;PMS_P1;PMS_P2;Temp;Humidity;BMP_temperature;BMP_pressure;BME280_temperature;BME280_humidity;BME280_pressure;Samples;Min_cycle;Max_cycle;Signal;HPM_P1;HPM_P2
2021/07/11 00:00:13;;;;;;;0.35;0.25;;;;;;;22.06;58.17;101648.97;5017162;28;20045;-85
2021/07/11 00:02:39;;;;;;;0.43;0.43;;;;;;;22.03;58.41;101646.44;5018230;28;20045;-86
2021/07/11 00:05:09;;;;;;;0.10;0.10;;;;;;;22.02;58.20;101649.19;5018342;28;20465;-88
2021/07/11 00:07:35;;;;;;;0.40;0.40;;;;;;;22.00;58.68;101651.13;5024580;28;20440;-86
2021/07/11 00:10:03;;;;;;;1.02;0.95;;;;;;;21.98;57.96;101657.47;5020559;28;20152;-87
2021/07/11 00:12:30;;;;;;;1.35;1.17;;;;;;;21.95;59.09;101654.94;5024730;28;20033;-86
2021/07/11 00:14:57;;;;;;;0.43;0.40;;;;;;;21.92;59.49;101649.72;5015826;28;20046;-87
2021/07/11 00:17:24;;;;;;;0.20;0.15;;;;;;;21.94;59.43;101647.81;5020117;28;20025;-86
2021/07/11 00:19:51;;;;;;;1.75;0.52;;;;;;;21.92;59.15;101652.44;5023937;28;20065;-87
2021/07/11 00:22:18;;;;;;;0.40;0.40;;;;;;;21.95;58.63;101649.53;5020121;28;20056;-86
2021/07/11 00:24:46;;;;;;;0.20;0.20;;;;;;;21.94;58.95;101658.63;5017153;28;20042;-86
2021/07/11 00:27:13;;;;;;;0.20;0.20;;;;;;;21.96;58.76;101653.13;5021034;28;20017;-86
2021/07/11 00:29:40;;;;;;;1.65;0.85;;;;;;;21.98;58.23;101653.91;5019468;28;20045;-86
2021/07/11 00:32:07;;;;;;;0.73;0.73;;;;;;;21.95;58.94;101649.53;5019942;28;20061;-85
2021/07/11 00:34:35;;;;;;;0.35;0.35;;;;;;;21.95;58.92;101648.69;5025224;28;20037;-91
2021/07/11 00:37:02;;;;;;;0.13;0.13;;;;;;;21.87;58.99;101646.41;5019927;28;20034;-85
2021/07/11 00:39:35;;;;;;;1.88;1.05;;;;;;;21.91;58.82;101652.53;5017303;28;20033;-91
2021/07/11 00:42:03;;;;;;;0.22;0.22;;;;;;;21.80;58.80;101655.78;5021959;28;20033;-85
2021/07/11 00:44:29;;;;;;;1.17;0.65;;;;;;;21.79;58.86;101649.53;5024151;28;20037;-87
2021/07/11 00:46:56;;;;;;;0.75;0.75;;;;;;;21.83;58.97;101650.22;5015884;28;20038;-86
2021/07/11 00:49:23;;;;;;;0.80;0.80;;;;;;;21.74;58.72;101640.81;5014042;28;20025;-86
2021/07/11 00:51:50;;;;;;;0.40;0.40;;;;;;;21.79;58.89;101644.16;5018449;28;20030;-87
2021/07/11 00:54:17;;;;;;;0.10;0.10;;;;;;;21.83;58.77;101646.66;5017559;28;20388;-86
2021/07/11 00:56:44;;;;;;;0.57;0.57;;;;;;;21.85;58.71;101648.31;5014843;28;20432;-85
2021/07/11 00:59:13;;;;;;;0.13;0.13;;;;;;;21.87;59.15;101656.31;5024629;28;20155;-86
2021/07/11 01:02:00;;;;;;;0.68;0.68;;;;;;;21.95;58.34;101644.16;5015952;28;20044;-86
2021/07/11 01:04:37;;;;;;;10.13;0.95;;;;;;;21.88;58.30;101653.56;5017317;28;20068;-86
2021/07/11 01:07:08;;;;;;;0.52;0.52;;;;;;;21.86;58.78;101665.38;5019522;28;20564;-84
2021/07/11 01:09:38;;;;;;;0.65;0.65;;;;;;;21.84;58.63;101662.75;5015355;28;20026;-87
2021/07/11 01:12:25;;;;;;;0.30;0.30;;;;;;;21.80;58.72;101661.19;5022013;28;20036;-85
2021/07/11 01:14:54;;;;;;;2.13;2.03;;;;;;;21.82;58.81;101664.69;5028954;28;20033;-86
2021/07/11 01:17:25;;;;;;;0.00;0.00;;;;;;;21.84;58.83;101657.34;5032149;28;20030;-86
2021/07/11 01:20:03;;;;;;;0.65;0.65;;;;;;;21.87;58.50;101668.00;5032851;28;20561;-85
2021/07/11 01:22:35;;;;;;;0.17;0.17;;;;;;;21.81;58.94;101658.41;5031640;28;20041;-85
2021/07/11 01:25:06;;;;;;;1.30;0.55;;;;;;;21.73;59.03;101665.16;5032887;28;20415;-85
2021/07/11 01:27:33;;;;;;;0.32;0.32;;;;;;;21.75;58.56;101661.44;5030111;28;20025;-86
2021/07/11 01:30:00;;;;;;;0.10;0.10;;;;;;;21.76;58.67;101662.31;5030580;28;20037;-85
2021/07/11 01:32:28;;;;;;;0.85;0.43;;;;;;;21.78;58.36;101668.47;5030645;28;20037;-86
2021/07/11 01:35:00;;;;;;;0.73;0.73;;;;;;;21.78;58.46;101673.88;5026457;28;20060;-85
2021/07/11 01:37:28;;;;;;;;;;;;;;;21.86;58.17;101671.66;5028069;28;20370;-85
2021/07/11 01:39:55;;;;;;;0.10;0.10;;;;;;;21.55;59.04;101670.56;5032069;28;19916;-85
2021/07/11 01:42:22;;;;;;;0.22;0.22;;;;;;;21.61;59.09;101672.13;5030906;28;20026;-85
2021/07/11 01:44:50;;;;;;;0.80;0.80;;;;;;;21.63;58.86;101665.69;5018144;28;20538;-85
2021/07/11 01:47:17;;;;;;;0.10;0.10;;;;;;;21.64;58.55;101666.53;5024887;28;20037;-85
2021/07/11 01:49:43;;;;;;;0.10;0.10;;;;;;;21.66;58.63;101670.03;5028785;28;20041;-85
2021/07/11 01:52:20;;;;;;;0.10;0.10;;;;;;;21.70;58.83;101668.91;5031173;28;20106;-86
2021/07/11 01:54:58;;;;;;;0.20;0.20;;;;;;;21.74;58.66;101666.91;5020440;28;20036;-85
2021/07/11 01:57:32;;;;;;;0.10;0.10;;;;;;;21.73;58.61;101666.06;5030990;28;20029;-85
2021/07/11 02:00:06;;;;;;;0.38;0.38;;;;;;;21.73;58.35;101662.47;5020311;28;20033;-85
2021/07/11 02:02:33;;;;;;;0.10;0.10;;;;;;;21.71;58.64;101665.25;5027250;28;20061;-85
2021/07/11 02:05:05;;;;;;;0.80;0.40;;;;;;;21.62;58.92;101663.94;5031099;28;20025;-86
2021/07/11 02:07:31;;;;;;;0.38;0.38;;;;;;;21.53;59.07;101668.91;5031506;28;20392;-85
2021/07/11 02:09:58;;;;;;;0.10;0.10;;;;;;;21.52;59.01;101668.03;5023593;28;20091;-85
2021/07/11 02:12:28;;;;;;;2.05;0.77;;;;;;;21.52;59.15;101676.13;5030970;28;20026;-86
2021/07/11 02:14:56;;;;;;;0.65;0.65;;;;;;;21.57;58.72;101667.81;5031296;28;20108;-85
2021/07/11 02:17:27;;;;;;;0.45;0.45;;;;;;;21.53;59.06;101669.75;5032271;28;20037;-86
2021/07/11 02:19:58;;;;;;;0.98;0.70;;;;;;;21.50;58.93;101675.34;5032104;28;20056;-85
2021/07/11 02:22:24;;;;;;;2.83;1.70;;;;;;;21.34;59.73;101670.72;5032092;28;20099;-85
2021/07/11 02:24:51;;;;;;;4.47;1.42;;;;;;;21.44;59.02;101675.66;5045895;22;20029;-82
2021/07/11 02:27:20;;;;;;;1.75;1.40;;;;;;;21.43;59.45;101673.91;5013673;28;20038;-79
2021/07/11 02:29:51;;;;;;;0.30;0.30;;;;;;;21.25;60.50;101676.63;5007128;28;20119;-81
2021/07/11 02:32:19;;;;;;;0.65;0.65;;;;;;;21.38;59.73;101678.69;5003090;28;20088;-80
2021/07/11 02:34:46;;;;;;;0.30;0.30;;;;;;;21.39;59.24;101683.13;5007998;28;20053;-81
2021/07/11 02:37:17;;;;;;;0.30;0.30;;;;;;;21.40;59.78;101668.69;4990235;28;20034;-82
2021/07/11 02:39:47;;;;;;;1.13;1.13;;;;;;;21.38;59.66;101686.75;4993162;28;20057;-81
2021/07/11 02:42:14;;;;;;;1.45;1.17;;;;;;;21.34;60.12;101686.91;4992359;28;20393;-80
2021/07/11 02:44:47;;;;;;;1.48;0.85;;;;;;;21.38;59.76;101684.94;4993028;28;20022;-80
2021/07/11 02:47:17;;;;;;;0.57;0.57;;;;;;;21.35;60.12;101687.78;4992892;28;20026;-82
2021/07/11 02:49:49;;;;;;;1.25;0.93;;;;;;;21.37;59.79;101685.91;4992460;28;20121;-81
2021/07/11 02:52:19;;;;;;;1.08;1.08;;;;;;;21.37;60.15;101690.41;4992961;28;20133;-79
2021/07/11 02:54:54;;;;;;;1.77;1.67;;;;;;;21.32;60.39;101688.81;4982825;28;20057;-81
2021/07/11 02:57:24;;;;;;;0.50;0.50;;;;;;;21.41;59.95;101683.88;4992759;28;20085;-80
2021/07/11 02:59:53;;;;;;;0.57;0.57;;;;;;;21.37;59.69;101683.22;4992197;28;20450;-82
2021/07/11 03:02:22;;;;;;;0.63;0.63;;;;;;;21.40;59.60;101690.25;4992614;28;20026;-81
2021/07/11 03:04:50;;;;;;;0.40;0.40;;;;;;;21.34;59.67;101676.13;4992688;28;20033;-81
2021/07/11 03:07:18;;;;;;;0.10;0.10;;;;;;;21.41;59.53;101676.69;4992416;28;20470;-81
2021/07/11 03:09:44;;;;;;;0.57;0.57;;;;;;;21.40;59.53;101674.94;4985517;28;20034;-81
2021/07/11 03:12:12;;;;;;;0.40;0.40;;;;;;;21.39;59.63;101666.94;4991727;28;20027;-81
2021/07/11 03:14:39;;;;;;;0.15;0.15;;;;;;;21.36;59.58;101672.47;4992394;28;20026;-81
2021/07/11 03:17:06;;;;;;;2.42;1.92;;;;;;;21.36;59.88;101669.78;4994097;28;20401;-81
2021/07/11 03:19:37;;;;;;;0.43;0.43;;;;;;;21.31;59.82;101679.00;4996186;28;20034;-82
2021/07/11 03:22:05;;;;;;;1.27;0.83;;;;;;;21.32;59.43;101678.06;4994430;28;20569;-82
2021/07/11 03:24:35;;;;;;;0.90;0.55;;;;;;;21.28;59.63;101680.97;4995733;28;20749;-81
2021/07/11 03:27:01;;;;;;;13.15;0.52;;;;;;;21.23;59.74;101680.34;4996298;28;20385;-80
2021/07/11 03:29:38;;;;;;;2.30;1.05;;;;;;;21.33;59.62;101690.56;4995873;28;20043;-81
2021/07/11 03:32:07;;;;;;;1.10;1.10;;;;;;;21.38;59.28;101681.38;4987867;28;20022;-80
2021/07/11 03:34:34;;;;;;;0.38;0.38;;;;;;;21.36;59.39;101688.66;4995722;28;20085;-81
2021/07/11 03:37:08;;;;;;;0.45;0.45;;;;;;;21.46;59.08;101684.53;4995588;28;20031;-81
2021/07/11 03:39:39;;;;;;;0.68;0.68;;;;;;;21.46;59.25;101677.31;4995874;28;20030;-81
2021/07/11 03:42:08;;;;;;;0.38;0.38;;;;;;;21.49;59.40;101690.63;4995268;28;20030;-81
2021/07/11 03:44:37;;;;;;;0.70;0.70;;;;;;;21.46;59.22;101684.53;4995218;28;20039;-81
2021/07/11 03:47:07;;;;;;;0.25;0.25;;;;;;;21.48;59.18;101688.00;4995981;28;20022;-81
2021/07/11 03:49:33;;;;;;;0.20;0.20;;;;;;;21.50;59.00;101688.81;4994425;28;20034;-81
2021/07/11 03:52:06;;;;;;;0.63;0.63;;;;;;;21.49;59.11;101689.75;4995666;28;20366;-80
2021/07/11 03:57:23;;;;;;;0.85;0.32;;;;;;;21.57;58.79;101673.22;5064508;28;20033;-92
2021/07/11 03:59:50;;;;;;;0.10;0.10;;;;;;;21.55;59.21;101677.78;5063337;28;20061;-92
2021/07/11 04:02:18;;;;;;;0.32;0.32;;;;;;;21.56;59.11;101671.47;5056278;28;20041;-89
2021/07/11 04:04:46;;;;;;;1.27;1.17;;;;;;;21.58;58.95;101670.44;5059608;28;20027;-92
2021/07/11 04:07:13;;;;;;;0.43;0.35;;;;;;;21.55;59.20;101667.88;5056231;28;20025;-92
2021/07/11 04:09:44;;;;;;;0.57;0.57;;;;;;;21.59;59.16;101664.06;5056300;28;20029;-91
2021/07/11 04:12:10;;;;;;;0.95;0.95;;;;;;;21.59;58.99;101658.69;5056010;28;20153;-92
2021/07/11 04:14:37;;;;;;;0.98;0.30;;;;;;;21.58;59.39;101662.38;5044737;28;20056;-91
2021/07/11 04:17:07;;;;;;;0.10;0.10;;;;;;;21.62;59.29;101660.34;5055130;28;20025;-91
2021/07/11 04:19:39;;;;;;;0.20;0.20;;;;;;;21.62;59.64;101650.44;5055850;28;20103;-89
2021/07/11 04:22:10;;;;;;;0.50;0.43;;;;;;;21.64;59.96;101651.22;5038160;28;20029;-93
2021/07/11 04:24:37;;;;;;;1.13;1.13;;;;;;;21.65;59.79;101647.56;5042590;28;20112;-85
2021/07/11 04:27:05;;;;;;;0.10;0.10;;;;;;;21.63;59.48;101648.59;5038380;28;20033;-92
2021/07/11 04:29:33;;;;;;;0.43;0.43;;;;;;;21.64;59.96;101650.34;5055192;28;20120;-91
2021/07/11 04:32:02;;;;;;;5.47;2.25;;;;;;;21.69;59.83;101652.81;5052511;28;20029;-91
2021/07/11 04:34:31;;;;;;;0.47;0.40;;;;;;;21.73;59.69;101654.38;5054657;28;20048;-88
2021/07/11 04:36:59;;;;;;;0.35;0.35;;;;;;;21.76;59.71;101654.22;5055336;28;20048;-92
2021/07/11 04:39:29;;;;;;;0.10;0.10;;;;;;;21.79;59.85;101644.16;5029343;28;20484;-91
2021/07/11 04:41:56;;;;;;;0.55;0.55;;;;;;;21.83;59.89;101650.22;5037401;28;20029;-91
2021/07/11 04:44:25;;;;;;;0.63;0.63;;;;;;;21.89;59.50;101649.88;5054843;28;20036;-86
2021/07/11 04:46:51;;;;;;;0.10;0.10;;;;;;;21.88;59.58;101653.56;5054853;28;20021;-93
2021/07/11 04:49:17;;;;;;;3.53;1.15;;;;;;;21.90;59.70;101657.03;5054301;28;20124;-92
2021/07/11 04:51:44;;;;;;;1.00;1.00;;;;;;;21.93;59.98;101656.88;5033125;28;20032;-89
2021/07/11 04:54:11;;;;;;;1.25;1.25;;;;;;;21.89;59.70;101660.69;5047528;28;20105;-91
2021/07/11 04:56:38;;;;;;;6.55;1.10;;;;;;;21.89;60.13;101659.81;5018193;28;20029;-90
2021/07/11 04:59:05;;;;;;;0.20;0.20;;;;;;;21.98;59.51;101657.47;5052509;28;20025;-91
2021/07/11 05:01:31;;;;;;;0.30;0.30;;;;;;;22.01;59.66;101653.75;5054048;28;20033;-91
2021/07/11 05:03:58;;;;;;;0.32;0.32;;;;;;;22.03;59.88;101645.56;5047389;28;20029;-91
2021/07/11 05:06:24;;;;;;;0.22;0.22;;;;;;;22.09;59.78;101650.63;5051201;28;20025;-90
2021/07/11 05:08:51;;;;;;;1.10;1.10;;;;;;;22.11;59.88;101648.72;5036358;28;20021;-88
2021/07/11 05:11:17;;;;;;;0.35;0.35;;;;;;;22.16;59.63;101654.72;5044797;28;20468;-90
2021/07/11 05:13:44;;;;;;;0.52;0.52;;;;;;;22.20;59.98;101650.03;5028496;28;20120;-92
2021/07/11 05:16:11;;;;;;;0.15;0.15;;;;;;;22.25;59.83;101656.88;5023820;28;20128;-90
2021/07/11 05:18:41;;;;;;;0.60;0.60;;;;;;;22.25;60.42;101658.72;5039628;28;20024;-88
2021/07/11 05:21:10;;;;;;;0.10;0.10;;;;;;;22.32;60.58;101649.31;5054744;28;20032;-91
2021/07/11 05:23:39;;;;;;;0.30;0.30;;;;;;;22.37;60.05;101654.44;5050358;28;20574;-90
2021/07/11 05:26:06;;;;;;;0.40;0.40;;;;;;;22.35;60.53;101653.69;5042828;28;20026;-91
2021/07/11 05:28:32;;;;;;;0.73;0.73;;;;;;;22.35;60.27;101656.38;5042669;28;20025;-90
2021/07/11 05:30:59;;;;;;;0.25;0.25;;;;;;;22.34;60.11;101655.47;5037390;28;20034;-88
2021/07/11 05:33:25;;;;;;;0.73;0.73;;;;;;;22.39;60.26;101657.97;5046000;28;20104;-92
2021/07/11 05:35:52;;;;;;;0.47;0.17;;;;;;;22.45;59.60;101652.22;5029246;28;20025;-89
2021/07/11 05:38:18;;;;;;;0.73;0.73;;;;;;;22.48;59.54;101649.34;5043194;28;20105;-92
2021/07/11 05:40:44;;;;;;;0.52;0.52;;;;;;;22.43;59.89;101659.53;5040406;28;20024;-90
2021/07/11 05:43:11;;;;;;;0.95;0.85;;;;;;;22.49;59.90;101659.16;5043642;28;20032;-91
2021/07/11 05:45:37;;;;;;;0.20;0.20;;;;;;;22.53;59.59;101659.88;5051707;28;20025;-85
2021/07/11 05:48:05;;;;;;;0.32;0.32;;;;;;;22.55;59.48;101658.81;5025941;28;20530;-91
2021/07/11 05:50:31;;;;;;;2.55;1.85;;;;;;;22.57;59.27;101662.31;5040270;28;20065;-84
2021/07/11 05:52:58;;;;;;;0.98;0.98;;;;;;;22.59;59.35;101663.09;5041935;28;20428;-87
2021/07/11 05:55:24;;;;;;;0.52;0.52;;;;;;;22.55;59.19;101661.53;5044856;28;20120;-89
2021/07/11 05:57:51;;;;;;;1.55;0.75;;;;;;;22.58;59.09;101672.16;5041581;28;20033;-92
2021/07/11 06:00:17;;;;;;;0.43;0.43;;;;;;;22.58;59.13;101669.47;5043680;28;20037;-92
2021/07/11 06:02:44;;;;;;;0.65;0.47;;;;;;;22.61;59.00;101680.06;5039434;28;20025;-91
2021/07/11 06:05:12;;;;;;;0.20;0.20;;;;;;;22.62;59.04;101676.41;5050245;28;20025;-81
2021/07/11 06:07:39;;;;;;;1.42;0.50;;;;;;;22.58;58.97;101682.97;5034793;28;20033;-81
2021/07/11 06:10:07;;;;;;;0.10;0.10;;;;;;;22.55;58.64;101688.53;5053163;28;20036;-80
2021/07/11 06:12:34;;;;;;;0.10;0.10;;;;;;;22.52;58.70;101695.94;5057922;28;20064;-90
2021/07/11 06:15:00;;;;;;;1.00;1.00;;;;;;;22.40;58.62;101703.78;5056996;28;20037;-81
2021/07/11 06:17:26;;;;;;;1.25;1.25;;;;;;;22.19;58.98;101700.41;5053770;28;20078;-81
2021/07/11 06:19:53;;;;;;;1.08;0.82;;;;;;;22.20;59.22;101707.56;5053174;28;20033;-84
2021/07/11 06:22:19;;;;;;;0.13;0.13;;;;;;;21.97;60.08;101709.69;5052630;28;20017;-84
2021/07/11 06:24:46;;;;;;;0.93;0.93;;;;;;;21.87;60.53;101721.06;5053018;28;20063;-85
2021/07/11 06:27:12;;;;;;;0.13;0.13;;;;;;;21.91;60.61;101719.97;5052803;28;20112;-81
2021/07/11 06:29:38;;;;;;;0.80;0.80;;;;;;;21.70;61.52;101713.91;5052633;28;20025;-84
2021/07/11 06:32:07;;;;;;;0.40;0.25;;;;;;;21.81;60.73;101716.88;5051927;28;20028;-88
2021/07/11 06:34:33;;;;;;;0.70;0.70;;;;;;;21.76;60.84;101722.53;5021724;28;20107;-91
2021/07/11 06:36:59;;;;;;;1.08;0.85;;;;;;;21.76;61.05;101719.81;5028037;28;20079;-88
2021/07/11 06:39:26;;;;;;;1.58;1.52;;;;;;;21.60;61.50;101722.47;5048858;28;20060;-81
2021/07/11 06:41:52;;;;;;;2.67;0.43;;;;;;;21.57;62.15;101722.63;5043272;28;20029;-85
2021/07/11 06:44:19;;;;;;;4.85;1.95;;;;;;;21.67;61.30;101724.84;5052563;28;20034;-86
2021/07/11 06:46:46;;;;;;;2.70;0.82;;;;;;;21.66;61.70;101732.06;5052439;28;20029;-84
2021/07/11 06:49:12;;;;;;;0.47;0.47;;;;;;;21.25;63.36;101733.22;5041315;28;20111;-93
2021/07/11 06:51:39;;;;;;;0.80;0.80;;;;;;;21.36;63.30;101732.69;5021311;28;20026;-79
2021/07/11 06:54:06;;;;;;;3.65;1.75;;;;;;;21.36;62.50;101729.09;5052981;28;20075;-83
2021/07/11 06:56:32;;;;;;;1.65;0.80;;;;;;;21.37;62.66;101725.44;5073399;22;20055;-81
2021/07/11 06:58:58;;;;;;;3.92;1.00;;;;;;;21.24;62.73;101734.16;5055391;28;20083;-81
2021/07/11 07:01:24;;;;;;;0.32;0.32;;;;;;;21.05;64.42;101738.72;5055417;28;20025;-81
2021/07/11 07:03:51;;;;;;;0.15;0.15;;;;;;;21.11;63.74;101744.69;5063188;28;20025;-81
2021/07/11 07:06:17;;;;;;;0.40;0.40;;;;;;;20.84;64.28;101753.19;5046034;28;20479;-81
2021/07/11 07:08:43;;;;;;;6.70;1.77;;;;;;;20.91;64.81;101752.88;5020617;28;20041;-81
2021/07/11 07:11:09;;;;;;;0.22;0.22;;;;;;;20.80;64.99;101756.13;5044630;28;20036;-81
2021/07/11 07:13:36;;;;;;;0.20;0.20;;;;;;;20.90;64.93;101757.41;5054543;28;20082;-81
2021/07/11 07:16:02;;;;;;;7.75;1.00;;;;;;;20.87;65.57;101762.94;5049181;28;20087;-81
2021/07/11 07:18:28;;;;;;;3.00;1.50;;;;;;;20.86;64.36;101761.22;5054417;28;20123;-81
2021/07/11 07:20:54;;;;;;;1.30;1.20;;;;;;;20.77;65.99;101767.03;5054488;28;20468;-81
2021/07/11 07:23:20;;;;;;;0.45;0.45;;;;;;;20.92;64.65;101765.41;5054019;28;20044;-82
2021/07/11 07:25:47;;;;;;;1.30;1.30;;;;;;;20.94;64.94;101775.16;5055105;28;20475;-81
2021/07/11 07:28:13;;;;;;;0.47;0.47;;;;;;;20.98;65.54;101765.97;5048860;28;20033;-81
2021/07/11 07:30:39;;;;;;;1.13;0.93;;;;;;;20.94;65.32;101759.00;5045853;28;20033;-81
2021/07/11 07:33:05;;;;;;;0.73;0.60;;;;;;;20.93;64.88;101767.16;5051402;28;20431;-82
2021/07/11 07:35:32;;;;;;;0.40;0.40;;;;;;;20.82;65.79;101762.28;5045617;28;20384;-79
2021/07/11 07:37:58;;;;;;;1.65;1.45;;;;;;;20.62;66.72;101769.50;5049003;28;20013;-81
2021/07/11 07:40:24;;;;;;;0.95;0.95;;;;;;;20.54;66.33;101771.66;5054008;28;20108;-81
2021/07/11 07:42:51;;;;;;;0.75;0.75;;;;;;;20.60;66.54;101770.50;5051536;28;20025;-80
2021/07/11 07:45:17;;;;;;;0.20;0.20;;;;;;;20.57;67.24;101771.50;5048604;28;20029;-81
2021/07/11 07:47:44;;;;;;;0.47;0.47;;;;;;;20.51;67.21;101769.09;5037396;28;20060;-81
2021/07/11 07:50:12;;;;;;;0.50;0.50;;;;;;;20.52;66.69;101768.16;5051244;28;20030;-80
2021/07/11 07:52:38;;;;;;;0.20;0.20;;;;;;;20.56;66.73;101768.91;5037122;28;20112;-81
2021/07/11 07:55:05;;;;;;;0.82;0.82;;;;;;;20.68;66.23;101779.94;5054227;28;20040;-80
2021/07/11 07:57:36;;;;;;;1.38;1.27;;;;;;;20.77;65.79;101783.19;5044951;28;20103;-81
2021/07/11 08:00:04;;;;;;;0.70;0.70;;;;;;;20.69;66.94;101773.63;5039522;28;20063;-82
2021/07/11 08:02:33;;;;;;;1.20;0.80;;;;;;;20.73;66.24;101776.22;5036771;28;20488;-80
2021/07/11 08:05:02;;;;;;;0.50;0.50;;;;;;;20.75;66.42;101782.38;5042891;28;20032;-82
2021/07/11 08:07:31;;;;;;;0.40;0.40;;;;;;;20.77;66.60;101780.50;5048325;28;20086;-81
2021/07/11 08:09:57;;;;;;;0.88;0.52;;;;;;;20.75;66.59;101796.75;5025379;28;20047;-82
2021/07/11 08:12:24;;;;;;;0.55;0.55;;;;;;;20.84;65.96;101796.28;5037244;28;20032;-80
2021/07/11 08:14:50;;;;;;;0.28;0.28;;;;;;;20.84;66.42;101795.41;5034860;28;20031;-80
2021/07/11 08:17:16;;;;;;;0.82;0.82;;;;;;;20.85;66.15;101792.66;5017401;28;20831;-81
2021/07/11 08:19:43;;;;;;;0.10;0.10;;;;;;;20.87;66.92;101791.72;5045598;28;20029;-81
2021/07/11 08:22:09;;;;;;;0.55;0.55;;;;;;;20.93;66.49;101794.09;5027226;28;20083;-81
2021/07/11 08:24:35;;;;;;;0.63;0.63;;;;;;;21.00;66.12;101796.41;5044624;28;20025;-81
2021/07/11 08:27:11;;;;;;;0.88;0.88;;;;;;;21.08;66.49;101787.09;5050458;22;20120;-84
2021/07/11 08:29:38;;;;;;;0.70;0.70;;;;;;;21.04;66.31;101793.59;5018147;28;20053;-86
2021/07/11 08:32:07;;;;;;;2.25;1.35;;;;;;;20.99;67.09;101791.97;5015682;28;20037;-85
2021/07/11 08:34:34;;;;;;;1.08;0.63;;;;;;;21.05;66.30;101793.50;5031319;28;20176;-86
2021/07/11 08:37:00;;;;;;;0.40;0.40;;;;;;;21.10;66.73;101796.84;5005855;28;20128;-86
2021/07/11 08:39:27;;;;;;;6.30;1.02;;;;;;;21.06;66.75;101799.75;5029395;28;20139;-81
2021/07/11 08:41:57;;;;;;;0.47;0.47;;;;;;;21.14;65.89;101789.47;5028934;28;20080;-85
2021/07/11 08:44:25;;;;;;;0.93;0.93;;;;;;;21.12;65.92;101794.94;5031746;28;20029;-84
2021/07/11 08:46:51;;;;;;;1.30;1.20;;;;;;;21.09;66.24;101799.63;5030095;28;20412;-85
2021/07/11 08:49:18;;;;;;;0.32;0.32;;;;;;;21.14;65.91;101793.03;5032152;28;20037;-84
2021/07/11 08:51:46;;;;;;;3.55;0.65;;;;;;;21.16;65.74;101785.75;5032487;28;20033;-86
2021/07/11 08:54:15;;;;;;;2.65;2.40;;;;;;;21.18;66.31;101788.38;5033028;28;20469;-84
2021/07/11 08:56:43;;;;;;;1.10;1.10;;;;;;;21.25;66.67;101792.50;5032415;28;20052;-85
2021/07/11 08:59:09;;;;;;;0.55;0.55;;;;;;;21.34;65.73;101785.78;5030138;28;20048;-83
2021/07/11 09:01:36;;;;;;;2.92;1.92;;;;;;;21.34;66.53;101788.47;5035100;28;20126;-86
2021/07/11 09:04:09;;;;;;;1.17;0.82;;;;;;;21.56;66.18;101782.91;5033787;28;20040;-86
2021/07/11 09:09:35;;;;;;;0.17;0.17;;;;;;;21.74;66.27;101774.81;5103379;27;20402;-82
2021/07/11 09:12:06;;;;;;;2.65;1.05;;;;;;;21.94;65.29;101771.94;5102508;28;20040;-84
2021/07/11 09:14:35;;;;;;;0.30;0.30;;;;;;;21.97;65.64;101766.38;5095584;28;20040;-87
2021/07/11 09:17:08;;;;;;;3.08;1.67;;;;;;;22.08;65.23;101760.41;5096712;28;20036;-85
2021/07/11 09:19:41;;;;;;;0.13;0.13;;;;;;;22.10;65.30;101773.81;5097804;28;20028;-87
2021/07/11 09:22:14;;;;;;;1.73;1.63;;;;;;;22.28;65.10;101770.09;5094769;28;20115;-87
2021/07/11 09:25:00;;;;;;;1.35;1.35;;;;;;;22.59;65.16;101765.75;5094860;28;20047;-87
2021/07/11 09:27:29;;;;;;;0.28;0.28;;;;;;;22.68;65.19;101767.03;5090059;28;20044;-89
2021/07/11 09:30:07;;;;;;;1.40;1.33;;;;;;;23.00;64.28;101766.16;5094936;28;20032;-85
2021/07/11 09:32:35;;;;;;;1.15;1.10;;;;;;;23.10;63.86;101768.25;5091413;28;20012;-81
2021/07/11 09:35:23;;;;;;;0.65;0.65;;;;;;;23.22;62.49;101763.97;5094957;28;20036;-80
2021/07/11 09:37:55;;;;;;;2.78;2.38;;;;;;;23.19;62.92;101766.84;5095760;28;20400;-86
2021/07/11 09:40:24;;;;;;;0.98;0.98;;;;;;;23.13;61.91;101761.78;5089879;28;20119;-86
2021/07/11 09:42:55;;;;;;;0.88;0.88;;;;;;;23.18;61.73;101764.22;5091186;28;20019;-85
2021/07/11 09:45:27;;;;;;;0.80;0.80;;;;;;;23.21;61.56;101764.91;5094673;28;20024;-84
2021/07/11 09:48:04;;;;;;;0.38;0.38;;;;;;;23.41;61.34;101768.28;5103613;28;20051;-86
2021/07/11 09:50:30;;;;;;;0.68;0.68;;;;;;;23.40;62.10;101780.06;5102269;28;20031;-86
2021/07/11 09:52:58;;;;;;;0.13;0.13;;;;;;;23.58;61.47;101776.25;5102054;28;20356;-86
2021/07/11 09:55:26;;;;;;;0.75;0.75;;;;;;;23.81;61.23;101781.22;5102403;22;20039;-81
2021/07/11 09:57:55;;;;;;;0.43;0.43;;;;;;;23.92;60.49;101777.91;5067398;28;20510;-82
2021/07/11 10:03:10;;;;;;;0.73;0.73;;;;;;;24.13;59.07;101768.44;5067509;28;20473;-83
2021/07/11 10:05:37;;;;;;;0.47;0.47;;;;;;;24.19;58.65;101776.16;5057992;28;20071;-83
2021/07/11 10:08:03;;;;;;;0.50;0.50;;;;;;;24.25;58.65;101772.22;5041439;28;20109;-85
2021/07/11 10:10:34;;;;;;;0.52;0.52;;;;;;;24.26;56.74;101778.50;5032567;28;20384;-83
2021/07/11 10:13:01;;;;;;;0.30;0.30;;;;;;;24.47;58.46;101773.53;5041182;28;20026;-82
2021/07/11 10:15:32;;;;;;;0.10;0.10;;;;;;;24.59;58.21;101774.59;5040146;28;20150;-85
2021/07/11 10:20:43;;;;;;;0.38;0.38;;;;;;;24.84;57.57;101763.06;5069696;28;20435;-86
2021/07/11 10:23:10;;;;;;;0.17;0.17;;;;;;;24.86;56.69;101767.41;5060892;28;20036;-87
2021/07/11 10:25:38;;;;;;;9.32;2.70;;;;;;;24.96;56.58;101769.50;5055661;28;20456;-86
2021/07/11 10:30:48;;;;;;;0.35;0.35;;;;;;;25.30;56.20;101764.53;5149622;27;20393;-87
2021/07/11 10:41:21;;;;;;;0.20;0.20;;;;;;;25.47;55.12;101775.13;5072558;27;20440;-87
2021/07/11 10:46:56;;;;;;;0.50;0.50;;;;;;;25.59;55.29;101767.13;5066437;27;20893;-87
2021/07/11 10:49:25;;;;;;;0.55;0.55;;;;;;;25.75;55.09;101770.50;5048225;28;20043;-87
2021/07/11 10:51:55;;;;;;;0.15;0.15;;;;;;;25.95;54.41;101765.50;5048613;28;20120;-87
2021/07/11 10:57:10;;;;;;;0.70;0.70;;;;;;;26.37;53.04;101766.16;5109392;27;20921;-86
2021/07/11 10:59:39;;;;;;;0.70;0.52;;;;;;;26.54;53.22;101758.63;5088375;28;20046;-86
2021/07/11 11:02:19;;;;;;;0.35;0.35;;;;;;;26.70;53.15;101767.38;5087416;28;20066;-86
2021/07/11 11:04:46;;;;;;;0.77;0.77;;;;;;;26.82;52.86;101759.31;5088101;28;20054;-86
2021/07/11 11:07:14;;;;;;;0.77;0.77;;;;;;;26.91;51.73;101761.34;5087563;28;20108;-87
2021/07/11 11:09:43;;;;;;;6.07;0.82;;;;;;;26.94;51.57;101750.22;5088236;28;20458;-86
2021/07/11 11:12:27;;;;;;;1.10;1.10;;;;;;;26.95;51.09;101749.25;5087323;28;20024;-86
2021/07/11 11:15:00;;;;;;;1.33;0.70;;;;;;;26.85;51.96;101748.22;5088042;28;20449;-85
2021/07/11 11:17:31;;;;;;;0.75;0.75;;;;;;;26.72;50.28;101749.09;5088093;28;20145;-87
2021/07/11 11:19:58;;;;;;;3.97;0.80;;;;;;;26.60;51.58;101748.16;5087732;28;20054;-86
2021/07/11 11:22:25;;;;;;;0.45;0.35;;;;;;;26.41;51.64;101745.94;5087239;28;20507;-85
2021/07/11 11:24:54;;;;;;;1.40;1.30;;;;;;;26.26;51.82;101744.34;5087666;28;20557;-85
2021/07/11 11:27:39;;;;;;;0.52;0.52;;;;;;;26.23;51.65;101745.44;5087394;28;20027;-85
2021/07/11 11:30:23;;;;;;;1.20;0.70;;;;;;;26.09;52.17;101751.84;5087272;28;20028;-85
2021/07/11 11:32:53;;;;;;;0.47;0.47;;;;;;;25.97;52.51;101747.25;5087294;28;20059;-83
2021/07/11 11:35:23;;;;;;;0.70;0.70;;;;;;;25.80;52.48;101749.31;5086261;28;20028;-79
2021/07/11 11:37:52;;;;;;;0.20;0.20;;;;;;;25.68;53.17;101748.34;5086263;28;20039;-81
2021/07/11 11:40:20;;;;;;;0.52;0.52;;;;;;;25.52;54.16;101756.69;5083758;28;20588;-80
2021/07/11 11:42:48;;;;;;;0.45;0.45;;;;;;;25.33;54.12;101767.03;5086068;28;20113;-79
2021/07/11 11:45:16;;;;;;;0.68;0.60;;;;;;;25.14;54.03;101765.56;5086184;28;20032;-81
2021/07/11 11:47:43;;;;;;;0.20;0.20;;;;;;;24.97;54.28;101779.38;5086230;28;20020;-78
2021/07/11 11:50:16;;;;;;;0.98;0.90;;;;;;;24.84;55.08;101771.19;5079440;28;20025;-78
2021/07/11 11:52:44;;;;;;;0.73;0.63;;;;;;;24.67;55.46;101777.69;5082216;28;20031;-78
2021/07/11 11:55:12;;;;;;;0.93;0.45;;;;;;;24.52;56.00;101774.13;5086329;28;20040;-78
2021/07/11 11:57:40;;;;;;;1.08;1.08;;;;;;;24.47;56.96;101770.84;5083088;28;20044;-78